createdAt,value
2023-02-16T00:01:35.824Z,76.10
2023-02-16T00:06:38.622Z,79.10
2023-02-16T00:11:45.289Z,72.50
2023-02-16T00:16:48.296Z,75.00
2023-02-16T00:21:54.635Z,78.20
2023-02-16T00:32:03.021Z,83.60
2023-02-16T00:37:08.691Z,81.80
2023-02-16T00:42:19.872Z,79.00
2023-02-16T00:47:37.143Z,81.40
2023-02-16T00:52:42.858Z,83.80
2023-02-16T00:57:54.640Z,92.30
2023-02-16T01:03:03.110Z,89.00
2023-02-16T01:08:13.997Z,86.80
2023-02-16T01:13:17.433Z,94.40
2023-02-16T01:18:20.790Z,84.00
2023-02-16T01:23:23.351Z,77.50
2023-02-16T01:28:26.408Z,77.30
2023-02-16T01:33:29.153Z,77.40
2023-02-16T01:38:31.635Z,77.10
2023-02-16T01:43:46.527Z,73.40
2023-02-16T01:48:49.165Z,75.20
2023-02-16T01:54:00.746Z,80.20
2023-02-16T01:59:13.457Z,74.00
2023-02-16T02:04:42.014Z,82.20
2023-02-16T02:09:57.006Z,75.50
2023-02-16T02:14:59.536Z,67.60
2023-02-16T02:20:05.337Z,60.70
2023-02-16T02:25:23.094Z,74.00
2023-02-16T02:30:31.512Z,61.90
2023-02-16T02:35:40.256Z,76.90
2023-02-16T02:40:45.611Z,72.90
2023-02-16T02:45:54.470Z,73.00
2023-02-16T02:51:04.155Z,47.80
2023-02-16T02:56:13.057Z,80.50
2023-02-16T03:01:18.738Z,76.20
2023-02-16T03:06:27.363Z,77.70
2023-02-16T03:11:33.385Z,82.30
2023-02-16T03:16:41.863Z,84.30
2023-02-16T03:21:47.905Z,73.00
2023-02-16T03:26:54.956Z,80.80
2023-02-16T03:31:57.954Z,73.10
2023-02-16T03:37:00.768Z,86.40
2023-02-16T03:42:03.394Z,82.00
2023-02-16T03:47:10.762Z,82.20
2023-02-16T03:52:13.232Z,88.00
2023-02-16T03:57:16.917Z,80.50
2023-02-16T04:02:20.120Z,55.30
2023-02-16T04:07:22.670Z,60.90
2023-02-16T04:12:28.113Z,74.60
2023-02-16T04:17:30.620Z,81.20
2023-02-16T04:22:33.142Z,95.50
2023-02-16T04:27:36.940Z,82.10
2023-02-16T04:32:39.619Z,85.60
2023-02-16T04:37:42.239Z,76.60
2023-02-16T04:42:45.495Z,75.10
2023-02-16T04:47:48.157Z,66.50
2023-02-16T04:52:50.647Z,93.40
2023-02-16T04:57:55.285Z,86.40
2023-02-16T05:02:57.761Z,86.70
2023-02-16T05:08:00.941Z,81.40
2023-02-16T05:13:06.695Z,94.80
2023-02-16T05:18:09.186Z,95.10
2023-02-16T05:23:11.681Z,84.30
2023-02-16T05:28:14.225Z,65.60
2023-02-16T05:33:16.696Z,88.10
2023-02-16T05:38:19.178Z,89.80
2023-02-16T05:43:21.662Z,88.80
2023-02-16T05:48:24.531Z,90.90
2023-02-16T05:53:27.030Z,93.50
2023-02-16T05:58:29.576Z,88.10
2023-02-16T06:03:32.693Z,87.70
2023-02-16T06:08:36.291Z,83.70
2023-02-16T06:13:38.747Z,55.00
2023-02-16T06:18:44.800Z,83.40
2023-02-16T06:23:47.397Z,89.20
2023-02-16T06:28:50.105Z,92.10
2023-02-16T06:33:53.797Z,96.80
2023-02-16T06:38:56.256Z,76.80
2023-02-16T06:44:00.391Z,87.40
2023-02-16T06:56:14.198Z,72.40
2023-02-16T07:01:22.845Z,77.30
2023-02-16T07:06:28.146Z,77.80
2023-02-16T07:11:30.670Z,86.90
2023-02-16T07:16:33.315Z,91.30
2023-02-16T07:21:35.898Z,82.50
2023-02-16T07:26:38.603Z,145.60
2023-02-16T07:31:41.252Z,92.20
2023-02-16T07:36:45.011Z,59.70
2023-02-16T07:41:47.539Z,74.30
2023-02-16T07:46:50.112Z,74.60
2023-02-16T07:51:52.576Z,24.70
2023-02-16T07:56:55.118Z,72.40
2023-02-16T08:01:57.872Z,80.40
2023-02-16T08:07:00.909Z,101.90
2023-02-16T08:12:03.569Z,95.60
2023-02-16T08:17:07.758Z,36.90
2023-02-16T08:22:12.141Z,80.00
2023-02-16T08:27:14.629Z,78.50
2023-02-16T08:32:17.130Z,80.20
2023-02-16T08:37:19.670Z,45.30
2023-02-16T08:42:22.206Z,81.30
2023-02-16T08:47:24.867Z,31.90
2023-02-16T08:52:27.795Z,67.40
2023-02-16T08:57:34.432Z,61.60
2023-02-16T09:02:37.340Z,67.20
2023-02-16T09:07:41.217Z,73.00
2023-02-16T09:12:43.716Z,84.60
2023-02-16T09:17:46.549Z,64.40
2023-02-16T09:22:49.126Z,78.80
2023-02-16T09:27:51.604Z,41.70
2023-02-16T09:32:55.169Z,76.00
2023-02-16T09:37:58.297Z,71.60
2023-02-16T09:43:14.940Z,88.30
2023-02-16T09:48:25.548Z,73.20
2023-02-16T09:53:37.248Z,75.10
2023-02-16T09:58:46.484Z,76.20
2023-02-16T10:03:54.536Z,73.00
2023-02-16T10:09:04.130Z,70.90
2023-02-16T10:14:14.408Z,66.70
2023-02-16T10:19:25.377Z,45.50
2023-02-16T10:24:31.301Z,63.50
2023-02-16T10:29:33.917Z,75.30
2023-02-16T10:34:56.769Z,71.20
2023-02-16T10:40:03.172Z,64.00
2023-02-16T10:45:09.900Z,72.30
2023-02-16T10:50:22.541Z,65.40
2023-02-16T10:55:25.763Z,70.00
2023-02-16T11:00:51.744Z,83.70
2023-02-16T11:05:55.331Z,83.10
2023-02-16T11:10:57.870Z,54.30
2023-02-16T11:16:06.805Z,81.80
2023-02-16T11:21:13.768Z,87.00
2023-02-16T11:26:19.134Z,93.90
2023-02-16T11:31:30.528Z,91.90
2023-02-16T11:36:35.817Z,72.70
2023-02-16T11:41:43.339Z,61.70
2023-02-16T11:46:46.618Z,74.00
2023-02-16T11:51:49.180Z,73.30
2023-02-16T11:57:01.002Z,81.60
2023-02-16T12:02:09.637Z,87.70
2023-02-16T12:07:23.416Z,80.00
2023-02-16T12:12:34.488Z,88.60
2023-02-16T12:17:42.815Z,95.80
2023-02-16T12:22:49.107Z,83.20
2023-02-16T12:27:56.385Z,85.20
2023-02-16T12:33:11.736Z,55.50
2023-02-16T12:38:18.222Z,83.30
2023-02-16T12:43:26.637Z,89.90
2023-02-16T12:48:32.740Z,88.70
2023-02-16T12:58:53.168Z,77.90
2023-02-16T13:04:18.863Z,80.20
2023-02-16T13:09:34.029Z,67.00
2023-02-16T13:14:42.754Z,85.50
2023-02-16T13:19:52.255Z,81.90
2023-02-16T13:24:58.748Z,62.90
2023-02-16T13:30:10.358Z,81.30
2023-02-16T13:35:18.822Z,75.60
2023-02-16T13:40:41.224Z,76.80
2023-02-16T13:45:47.036Z,86.00
2023-02-16T13:50:56.885Z,96.00
2023-02-16T13:56:05.549Z,76.90
2023-02-16T14:01:14.156Z,80.90
2023-02-16T14:06:22.459Z,90.10
2023-02-16T14:11:25.108Z,98.30
2023-02-16T14:16:31.462Z,92.60
2023-02-16T14:21:41.069Z,112.50
2023-02-16T14:26:49.376Z,108.10
2023-02-16T14:32:00.739Z,89.30
2023-02-16T14:37:27.774Z,118.70
2023-02-16T14:42:34.039Z,126.60
2023-02-16T14:52:46.951Z,97.80
2023-02-16T14:57:52.753Z,99.50
2023-02-16T15:02:59.788Z,118.10
2023-02-16T15:08:11.691Z,88.40
2023-02-16T15:13:21.058Z,103.90
2023-02-16T15:18:28.208Z,100.60
2023-02-16T15:23:35.607Z,134.40
2023-02-16T15:28:40.747Z,90.70
2023-02-16T15:33:53.362Z,137.70
2023-02-16T15:38:58.608Z,135.60
2023-02-16T15:44:03.761Z,122.60
2023-02-16T15:49:12.449Z,118.90
2023-02-16T15:54:26.680Z,137.60
2023-02-16T15:59:35.297Z,141.70
2023-02-16T16:04:43.795Z,180.90
2023-02-16T16:09:47.580Z,183.30
2023-02-16T16:14:56.487Z,200.10
2023-02-16T16:20:20.295Z,213.00
2023-02-16T16:25:28.634Z,249.60
2023-02-16T16:30:36.174Z,196.60
2023-02-16T16:35:49.014Z,176.70
2023-02-16T16:40:57.359Z,174.00
2023-02-16T16:46:05.739Z,172.60
2023-02-16T16:51:10.492Z,185.20
2023-02-16T16:56:20.509Z,189.40
2023-02-16T17:01:24.281Z,184.00
2023-02-16T17:06:27.458Z,177.30
2023-02-16T17:11:34.114Z,163.80
2023-02-16T17:16:41.923Z,195.90
2023-02-16T17:21:45.567Z,229.90
2023-02-16T17:31:56.241Z,187.40
2023-02-16T17:37:02.763Z,190.90
2023-02-16T17:42:15.500Z,166.00
2023-02-16T17:47:20.243Z,170.00
2023-02-16T17:52:22.766Z,161.10
2023-02-16T17:57:28.052Z,181.00
2023-02-16T18:02:30.851Z,140.30
2023-02-16T18:07:33.398Z,128.30
2023-02-16T18:12:36.215Z,123.20
2023-02-16T18:17:41.573Z,166.80
2023-02-16T18:22:44.240Z,160.00
2023-02-16T18:27:46.969Z,138.10
2023-02-16T18:32:50.524Z,125.30
2023-02-16T18:37:53.038Z,153.00
2023-02-16T18:42:56.646Z,149.70
2023-02-16T18:48:00.170Z,138.30
2023-02-16T18:53:03.069Z,73.40
2023-02-16T18:58:08.321Z,61.40
2023-02-16T19:03:11.139Z,139.10
2023-02-16T19:08:15.921Z,121.40
2023-02-16T19:13:18.413Z,122.20
2023-02-16T19:18:20.962Z,70.40
2023-02-16T19:23:23.678Z,108.80
2023-02-16T19:28:26.231Z,134.90
2023-02-16T19:33:31.998Z,82.60
2023-02-16T19:38:34.668Z,115.50
2023-02-16T19:43:38.618Z,112.50
2023-02-16T19:48:42.440Z,112.10
2023-02-16T19:53:45.645Z,82.50
2023-02-16T19:58:48.680Z,106.00
2023-02-16T20:03:52.458Z,74.80
2023-02-16T20:08:56.569Z,115.00
2023-02-16T20:14:01.087Z,76.70
2023-02-16T20:19:03.818Z,94.20
2023-02-16T20:24:06.677Z,87.50
2023-02-16T20:29:14.010Z,96.70
2023-02-16T20:34:16.752Z,93.00
2023-02-16T20:39:21.733Z,90.10
2023-02-16T20:44:25.735Z,86.00
2023-02-16T20:49:28.279Z,82.90
2023-02-16T20:54:31.472Z,90.10
2023-02-16T20:59:35.202Z,70.00
2023-02-16T21:04:37.696Z,79.50
2023-02-16T21:09:40.586Z,84.60
2023-02-16T21:14:43.110Z,72.60
2023-02-16T21:19:45.674Z,74.80
2023-02-16T21:24:48.253Z,67.40
2023-02-16T21:29:51.399Z,70.50
2023-02-16T21:34:55.039Z,60.90
2023-02-16T21:40:00.432Z,69.20
2023-02-16T21:45:07.025Z,78.10
2023-02-16T21:50:09.628Z,72.20
2023-02-16T21:55:15.048Z,80.20
2023-02-16T22:00:19.277Z,78.70
2023-02-16T22:05:21.863Z,71.50
2023-02-16T22:10:26.219Z,75.50
2023-02-16T22:15:29.524Z,56.10
2023-02-16T22:20:32.348Z,80.90
2023-02-16T22:25:39.436Z,65.20
2023-02-16T22:30:44.424Z,72.20
2023-02-16T22:35:47.659Z,77.30
2023-02-16T22:40:50.133Z,81.90
2023-02-16T22:45:52.662Z,77.00
2023-02-16T22:51:06.028Z,78.50
2023-02-16T22:56:11.489Z,68.70
2023-02-16T23:01:17.161Z,78.10
2023-02-16T23:06:22.307Z,73.60
2023-02-16T23:11:25.615Z,42.20
2023-02-16T23:16:28.794Z,72.70
2023-02-16T23:21:33.062Z,74.10
2023-02-16T23:26:35.595Z,72.10
2023-02-16T23:31:44.336Z,75.60
2023-02-16T23:36:46.945Z,72.90
2023-02-16T23:41:49.528Z,67.40
2023-02-16T23:46:52.033Z,73.60
2023-02-16T23:51:54.639Z,59.40
2023-02-16T23:56:58.985Z,67.10
